createdAt,value
2018-08-25T00:00:57.075Z,16.48
2018-08-25T00:01:57.065Z,16.39
2018-08-25T00:02:57.052Z,16.42
2018-08-25T00:03:57.030Z,16.39
2018-08-25T00:04:57.032Z,16.42
2018-08-25T00:05:57.008Z,16.42
2018-08-25T00:06:56.986Z,16.35
2018-08-25T00:07:56.967Z,16.39
2018-08-25T00:08:56.954Z,16.38
2018-08-25T00:09:56.951Z,16.34
2018-08-25T00:10:56.920Z,16.34
2018-08-25T00:11:56.901Z,16.38
2018-08-25T00:12:56.890Z,16.48
2018-08-25T00:13:56.873Z,16.41
2018-08-25T00:14:56.859Z,16.35
2018-08-25T00:15:56.858Z,16.34
2018-08-25T00:16:56.871Z,16.53
2018-08-25T00:17:56.814Z,16.43
2018-08-25T00:18:56.802Z,16.45
2018-08-25T00:19:56.781Z,16.39
2018-08-25T00:20:56.759Z,16.45
2018-08-25T00:21:56.767Z,16.42
2018-08-25T00:22:56.733Z,16.45
2018-08-25T00:23:56.719Z,16.48
2018-08-25T00:24:56.700Z,16.52
2018-08-25T00:25:56.700Z,16.56
2018-08-25T00:26:56.670Z,16.57
2018-08-25T00:27:56.656Z,16.56
2018-08-25T00:28:56.638Z,16.57
2018-08-25T00:29:56.619Z,16.42
2018-08-25T00:30:56.630Z,16.41
2018-08-25T00:31:56.595Z,16.43
2018-08-25T00:32:56.588Z,16.48
2018-08-25T00:33:56.562Z,16.41
2018-08-25T00:34:56.546Z,16.39
2018-08-25T00:35:56.530Z,16.43
2018-08-25T00:36:56.551Z,16.42
2018-08-25T00:37:56.499Z,16.46
2018-08-25T00:38:56.482Z,16.48
2018-08-25T00:39:56.469Z,16.46
2018-08-25T00:40:56.456Z,16.34
2018-08-25T00:41:56.451Z,16.35
2018-08-25T00:42:56.415Z,16.33
2018-08-25T00:43:56.400Z,16.41
2018-08-25T00:44:56.400Z,16.48
2018-08-25T00:45:56.379Z,16.46
2018-08-25T00:46:56.374Z,16.38
2018-08-25T00:47:56.396Z,16.30
2018-08-25T00:48:56.327Z,16.35
2018-08-25T00:49:56.317Z,16.31
2018-08-25T00:50:56.295Z,16.39
2018-08-25T00:51:56.281Z,16.41
2018-08-25T00:52:56.282Z,16.27
2018-08-25T00:53:56.247Z,16.30
2018-08-25T00:54:56.231Z,16.34
2018-08-25T00:55:56.217Z,16.27
2018-08-25T00:56:56.214Z,16.31
2018-08-25T00:57:56.185Z,16.35
2018-08-25T00:58:56.181Z,16.34
2018-08-25T00:59:56.806Z,16.25
2018-08-25T01:00:56.139Z,16.30
2018-08-25T01:01:56.123Z,16.28
2018-08-25T01:02:56.121Z,16.35
2018-08-25T01:03:56.096Z,16.23
2018-08-25T01:04:56.073Z,16.20
2018-08-25T01:05:56.061Z,16.17
2018-08-25T01:06:56.046Z,16.15
2018-08-25T01:07:56.041Z,16.23
2018-08-25T01:08:56.012Z,16.17
2018-08-25T01:09:55.997Z,16.24
2018-08-25T01:10:55.993Z,16.24
2018-08-25T01:11:55.981Z,16.17
2018-08-25T01:12:55.949Z,16.05
2018-08-25T01:13:55.933Z,16.07
2018-08-25T01:14:55.914Z,16.17
2018-08-25T01:15:55.905Z,16.08
2018-08-25T01:16:55.900Z,16.14
2018-08-25T01:17:55.864Z,16.14
2018-08-25T01:18:55.873Z,16.20
2018-08-25T01:19:55.853Z,16.17
2018-08-25T01:20:55.818Z,16.14
2018-08-25T01:21:55.803Z,16.17
2018-08-25T01:22:55.805Z,16.12
2018-08-25T01:23:55.772Z,16.20
2018-08-25T01:24:55.760Z,16.21
2018-08-25T01:25:55.740Z,16.24
2018-08-25T01:26:55.728Z,16.24
2018-08-25T01:27:55.723Z,16.23
2018-08-25T01:28:55.694Z,16.23
2018-08-25T01:29:55.678Z,16.34
2018-08-25T01:30:55.660Z,16.39
2018-08-25T01:31:55.648Z,16.34
2018-08-25T01:32:55.648Z,16.31
2018-08-25T01:33:55.625Z,16.20
2018-08-25T01:34:55.598Z,16.20
2018-08-25T01:35:55.582Z,16.27
2018-08-25T01:36:55.576Z,16.24
2018-08-25T01:37:55.555Z,16.28
2018-08-25T01:38:55.553Z,16.30
2018-08-25T01:39:55.518Z,16.34
2018-08-25T01:40:55.505Z,16.31
2018-08-25T01:41:55.492Z,16.23
2018-08-25T01:42:55.469Z,16.23
2018-08-25T01:43:55.456Z,16.23
2018-08-25T01:44:55.453Z,16.38
2018-08-25T01:45:55.428Z,16.38
2018-08-25T01:46:55.400Z,16.31
2018-08-25T01:47:55.383Z,16.17
2018-08-25T01:48:55.392Z,16.28
2018-08-25T01:49:55.360Z,16.23
2018-08-25T01:50:55.357Z,16.23
2018-08-25T01:51:55.323Z,16.31
2018-08-25T01:52:55.312Z,16.28
2018-08-25T01:53:55.299Z,16.23
2018-08-25T01:54:55.292Z,16.28
2018-08-25T01:55:55.267Z,16.17
2018-08-25T01:56:55.245Z,16.27
2018-08-25T01:57:55.230Z,16.25
2018-08-25T01:58:55.216Z,16.25
2018-08-25T01:59:55.221Z,16.27
2018-08-25T02:00:55.186Z,16.35
2018-08-25T02:01:55.166Z,16.41
2018-08-25T02:02:55.153Z,16.34
2018-08-25T02:03:55.138Z,16.38
2018-08-25T02:04:55.115Z,16.33
2018-08-25T02:05:55.116Z,16.33
2018-08-25T02:06:55.089Z,16.28
2018-08-25T02:07:55.064Z,16.23
2018-08-25T02:08:55.057Z,16.24
2018-08-25T02:09:55.042Z,16.15
2018-08-25T02:10:55.049Z,16.07
2018-08-25T02:11:55.008Z,15.92
2018-08-25T02:12:55.012Z,15.92
2018-08-25T02:13:54.975Z,15.94
2018-08-25T02:14:54.961Z,15.89
2018-08-25T02:15:54.944Z,15.80
2018-08-25T02:16:54.925Z,15.84
2018-08-25T02:17:54.914Z,15.67
2018-08-25T02:18:54.910Z,15.59
2018-08-25T02:19:54.876Z,15.54
2018-08-25T02:20:54.865Z,15.47
2018-08-25T02:21:54.849Z,15.49
2018-08-25T02:22:54.844Z,15.50
2018-08-25T02:23:54.826Z,15.39
2018-08-25T02:24:54.798Z,15.41
2018-08-25T02:25:54.777Z,15.36
2018-08-25T02:26:54.764Z,15.53
2018-08-25T02:27:54.767Z,15.50
2018-08-25T02:28:54.754Z,15.50
2018-08-25T02:29:54.716Z,15.50
2018-08-25T02:30:54.700Z,15.47
2018-08-25T02:31:54.681Z,15.51
2018-08-25T02:32:54.668Z,15.53
2018-08-25T02:33:54.676Z,15.54
2018-08-25T02:35:15.651Z,15.39
2018-08-25T02:35:54.624Z,15.38
2018-08-25T02:36:54.607Z,15.49
2018-08-25T02:37:54.583Z,15.39
2018-08-25T02:38:54.571Z,15.41
2018-08-25T02:39:54.555Z,15.35
2018-08-25T02:40:54.572Z,15.28
2018-08-25T02:41:54.530Z,15.25
2018-08-25T02:42:54.512Z,15.32
2018-08-25T02:43:54.486Z,15.34
2018-08-25T02:44:54.472Z,15.28
2018-08-25T02:45:54.476Z,15.35
2018-08-25T02:46:54.438Z,15.21
2018-08-25T02:47:54.429Z,15.25
2018-08-25T02:48:54.411Z,15.14
2018-08-25T02:49:54.396Z,15.10
2018-08-25T02:50:54.393Z,15.11
2018-08-25T02:51:54.364Z,15.03
2018-08-25T02:52:54.347Z,15.06
2018-08-25T02:53:54.329Z,15.03
2018-08-25T02:54:54.308Z,15.03
2018-08-25T02:55:54.312Z,14.91
2018-08-25T02:56:54.282Z,14.94
2018-08-25T02:57:54.265Z,14.92
2018-08-25T02:58:54.246Z,14.83
2018-08-25T02:59:54.231Z,14.73
2018-08-25T03:00:54.230Z,14.69
2018-08-25T03:01:54.199Z,14.58
2018-08-25T03:02:54.202Z,14.39
2018-08-25T03:03:54.165Z,14.25
2018-08-25T03:04:54.152Z,14.18
2018-08-25T03:05:54.132Z,14.22
2018-08-25T03:06:54.115Z,14.04
2018-08-25T03:07:54.103Z,13.87
2018-08-25T03:08:54.100Z,13.88
2018-08-25T03:09:54.066Z,13.77
2018-08-25T03:10:54.049Z,13.71
2018-08-25T03:11:54.029Z,13.69
2018-08-25T03:12:54.037Z,13.69
2018-08-25T03:13:54.137Z,13.67
2018-08-25T03:14:53.982Z,13.66
2018-08-25T03:15:53.967Z,13.60
2018-08-25T03:17:14.958Z,13.63
2018-08-25T03:17:53.929Z,13.57
2018-08-25T03:18:53.918Z,13.60
2018-08-25T03:19:53.899Z,13.59
2018-08-25T03:20:53.881Z,13.51
2018-08-25T03:21:53.871Z,13.51
2018-08-25T03:22:53.864Z,13.46
2018-08-25T03:23:53.840Z,13.44
2018-08-25T03:24:53.814Z,13.48
2018-08-25T03:25:53.795Z,13.44
2018-08-25T03:26:53.778Z,13.48
2018-08-25T03:27:53.783Z,13.36
2018-08-25T03:28:53.749Z,13.42
2018-08-25T03:29:53.732Z,13.44
2018-08-25T03:30:53.714Z,13.48
2018-08-25T03:31:53.698Z,13.44
2018-08-25T03:32:53.701Z,13.46
2018-08-25T03:33:53.658Z,13.44
2018-08-25T03:34:53.643Z,13.49
2018-08-25T03:35:53.627Z,13.49
2018-08-25T03:36:53.610Z,13.49
2018-08-25T03:37:53.602Z,13.48
2018-08-25T03:38:53.605Z,13.45
2018-08-25T03:39:53.556Z,13.48
2018-08-25T03:40:53.549Z,13.45
2018-08-25T03:41:53.527Z,13.42
2018-08-25T03:42:53.519Z,13.30
2018-08-25T03:43:53.492Z,13.32
2018-08-25T03:44:53.478Z,13.36
2018-08-25T03:45:53.477Z,13.36
2018-08-25T03:46:53.441Z,13.33
2018-08-25T03:47:53.430Z,13.28
2018-08-25T03:48:53.419Z,13.39
2018-08-25T03:49:53.393Z,13.28
2018-08-25T03:50:53.371Z,13.36
2018-08-25T03:51:53.381Z,13.29
2018-08-25T03:52:53.341Z,13.33
2018-08-25T03:53:53.322Z,13.20
2018-08-25T03:54:53.300Z,13.29
2018-08-25T03:55:53.295Z,13.28
2018-08-25T03:56:53.287Z,13.23
2018-08-25T03:57:53.252Z,13.26
2018-08-25T03:58:53.245Z,13.29
2018-08-25T03:59:53.217Z,13.38
2018-08-25T04:00:53.203Z,13.29
2018-08-25T04:01:53.185Z,13.22
2018-08-25T04:02:53.174Z,13.19
2018-08-25T04:03:53.154Z,13.20
2018-08-25T04:04:53.131Z,13.28
2018-08-25T04:05:53.132Z,13.19
2018-08-25T04:06:53.101Z,13.23
2018-08-25T04:07:53.077Z,13.32
2018-08-25T04:08:53.089Z,13.26
2018-08-25T04:09:53.048Z,13.45
2018-08-25T04:10:53.048Z,13.46
2018-08-25T04:11:53.016Z,13.39
2018-08-25T04:12:52.992Z,13.44
2018-08-25T04:13:52.984Z,13.38
2018-08-25T04:14:53.006Z,13.39
2018-08-25T04:15:52.956Z,13.33
2018-08-25T04:16:52.923Z,13.36
2018-08-25T04:17:52.912Z,13.44
2018-08-25T04:18:52.891Z,13.49
2018-08-25T04:19:52.886Z,13.54
2018-08-25T04:20:52.872Z,13.44
2018-08-25T04:21:52.841Z,13.44
2018-08-25T04:22:52.828Z,13.46
2018-08-25T04:23:52.813Z,13.45
2018-08-25T04:24:52.804Z,13.44
2018-08-25T04:25:52.775Z,13.46
2018-08-25T04:26:52.773Z,13.46
2018-08-25T04:27:52.737Z,13.42
2018-08-25T04:28:52.724Z,13.48
2018-08-25T04:29:52.715Z,13.41
2018-08-25T04:30:52.686Z,13.41
2018-08-25T04:31:52.682Z,13.48
2018-08-25T04:32:52.655Z,13.55
2018-08-25T04:33:52.633Z,13.46
2018-08-25T04:34:52.620Z,13.48
2018-08-25T04:35:52.601Z,13.39
2018-08-25T04:36:52.591Z,13.32
2018-08-25T04:37:52.584Z,13.44
2018-08-25T04:38:52.556Z,13.38
2018-08-25T04:39:52.535Z,13.42
2018-08-25T04:40:52.519Z,13.33
2018-08-25T04:41:52.494Z,13.30
2018-08-25T04:42:52.497Z,13.29
2018-08-25T04:43:52.473Z,13.33
2018-08-25T04:44:52.448Z,13.44
2018-08-25T04:45:52.448Z,13.41
2018-08-25T04:46:52.416Z,13.44
2018-08-25T04:47:53.449Z,13.38
2018-08-25T04:48:52.380Z,13.36
2018-08-25T04:49:52.367Z,13.30
2018-08-25T04:50:52.348Z,13.33
2018-08-25T04:51:52.326Z,13.23
2018-08-25T04:52:52.345Z,13.20
2018-08-25T04:53:52.296Z,13.23
2018-08-25T04:54:52.299Z,13.19
2018-08-25T04:55:52.274Z,13.23
2018-08-25T04:56:52.244Z,13.20
2018-08-25T04:57:52.239Z,13.10
2018-08-25T04:58:52.222Z,13.14
2018-08-25T04:59:52.203Z,13.19
2018-08-25T05:00:52.182Z,13.15
2018-08-25T05:01:52.194Z,13.15
2018-08-25T05:02:52.176Z,13.11
2018-08-25T05:03:52.124Z,13.12
2018-08-25T05:04:52.105Z,13.08
2018-08-25T05:05:52.090Z,13.03
2018-08-25T05:06:52.074Z,13.14
2018-08-25T05:07:52.091Z,13.12
2018-08-25T05:08:52.052Z,13.08
2018-08-25T05:09:52.023Z,13.10
2018-08-25T05:10:52.020Z,13.10
2018-08-25T05:11:51.989Z,13.15
2018-08-25T05:12:51.972Z,13.11
2018-08-25T05:13:51.954Z,13.11
2018-08-25T05:14:51.950Z,13.10
2018-08-25T05:15:51.918Z,13.14
2018-08-25T05:16:51.919Z,13.11
2018-08-25T05:17:51.882Z,13.08
2018-08-25T05:18:51.865Z,13.12
2018-08-25T05:19:52.137Z,13.14
2018-08-25T05:20:51.833Z,13.07
2018-08-25T05:21:51.839Z,13.22
2018-08-25T05:22:51.804Z,13.15
2018-08-25T05:23:52.356Z,13.19
2018-08-25T05:24:51.763Z,13.19
2018-08-25T05:25:51.750Z,13.28
2018-08-25T05:26:51.747Z,13.29
2018-08-25T05:27:51.714Z,13.20
2018-08-25T05:28:51.713Z,13.14
2018-08-25T05:29:51.690Z,13.20
2018-08-25T05:30:51.663Z,13.23
2018-08-25T05:31:51.664Z,13.19
2018-08-25T05:32:51.629Z,13.12
2018-08-25T05:33:51.629Z,13.11
2018-08-25T05:34:51.604Z,13.12
2018-08-25T05:35:51.573Z,13.08
2018-08-25T05:36:51.556Z,13.10
2018-08-25T05:37:51.544Z,13.11
2018-08-25T05:38:51.524Z,13.07
2018-08-25T05:39:51.532Z,13.17
2018-08-25T05:40:51.492Z,13.14
2018-08-25T05:41:51.470Z,13.22
2018-08-25T05:42:51.469Z,13.26
2018-08-25T05:43:51.441Z,13.32
2018-08-25T05:44:51.444Z,13.32
2018-08-25T05:45:51.405Z,13.38
2018-08-25T05:46:51.390Z,13.29
2018-08-25T05:47:51.370Z,13.32
2018-08-25T05:48:51.354Z,13.17
2018-08-25T05:49:51.340Z,13.32
2018-08-25T05:50:51.333Z,13.30
2018-08-25T05:51:51.304Z,13.38
2018-08-25T05:52:51.294Z,13.33
2018-08-25T05:53:51.266Z,13.41
2018-08-25T05:54:51.268Z,13.39
2018-08-25T05:55:51.252Z,13.44
2018-08-25T05:56:51.217Z,13.44
2018-08-25T05:57:51.211Z,13.36
2018-08-25T05:58:51.183Z,13.38
2018-08-25T05:59:51.170Z,13.38
2018-08-25T06:00:51.179Z,13.45
2018-08-25T06:01:51.133Z,13.41
2018-08-25T06:02:51.119Z,13.51
2018-08-25T06:03:51.100Z,13.46
2018-08-25T06:04:51.081Z,13.62
2018-08-25T06:05:51.078Z,13.60
2018-08-25T06:06:51.062Z,13.63
2018-08-25T06:07:51.030Z,13.70
2018-08-25T06:08:51.016Z,13.67
2018-08-25T06:09:50.997Z,13.81
2018-08-25T06:10:50.978Z,13.85
2018-08-25T06:11:50.978Z,13.88
2018-08-25T06:12:50.958Z,13.75
2018-08-25T06:13:50.930Z,13.70
2018-08-25T06:14:50.910Z,13.71
2018-08-25T06:15:50.897Z,13.66
2018-08-25T06:16:50.878Z,13.81
2018-08-25T06:17:50.896Z,13.73
2018-08-25T06:18:50.846Z,13.66
2018-08-25T06:19:50.826Z,13.70
2018-08-25T06:20:50.810Z,13.69
2018-08-25T06:21:50.794Z,13.70
2018-08-25T06:22:50.780Z,13.63
2018-08-25T06:23:50.772Z,13.57
2018-08-25T06:24:50.740Z,13.52
2018-08-25T06:25:50.728Z,13.51
2018-08-25T06:26:50.711Z,13.45
2018-08-25T06:27:50.708Z,13.62
2018-08-25T06:28:50.675Z,13.55
2018-08-25T06:29:50.817Z,13.66
2018-08-25T06:30:50.641Z,13.64
2018-08-25T06:31:50.625Z,13.67
2018-08-25T06:32:50.608Z,13.59
2018-08-25T06:33:50.619Z,13.69
2018-08-25T06:34:50.575Z,13.70
2018-08-25T06:35:50.575Z,13.66
2018-08-25T06:36:50.546Z,13.77
2018-08-25T06:37:50.527Z,13.82
2018-08-25T06:38:50.524Z,13.82
2018-08-25T06:39:50.494Z,13.89
2018-08-25T06:40:50.490Z,14.02
2018-08-25T06:41:50.458Z,13.99
2018-08-25T06:42:50.441Z,14.03
2018-08-25T06:43:50.423Z,13.97
2018-08-25T06:44:50.426Z,14.04
2018-08-25T06:45:50.403Z,14.09
2018-08-25T06:46:50.379Z,14.10
2018-08-25T06:47:50.352Z,14.10
2018-08-25T06:48:50.337Z,14.02
2018-08-25T06:49:50.342Z,14.09
2018-08-25T06:50:50.310Z,14.21
2018-08-25T06:51:50.307Z,14.28
2018-08-25T06:52:50.275Z,14.24
2018-08-25T06:53:50.290Z,14.28
2018-08-25T06:54:50.249Z,14.24
2018-08-25T06:55:50.235Z,14.21
2018-08-25T06:56:50.221Z,14.21
2018-08-25T06:57:50.193Z,14.20
2018-08-25T06:58:50.181Z,14.22
2018-08-25T06:59:50.159Z,14.14
2018-08-25T07:00:50.161Z,14.18
2018-08-25T07:01:50.126Z,14.27
2018-08-25T07:02:50.108Z,14.15
2018-08-25T07:03:50.092Z,14.27
2018-08-25T07:04:50.071Z,14.22
2018-08-25T07:05:50.088Z,14.33
2018-08-25T07:06:50.060Z,14.33
2018-08-25T07:07:50.028Z,14.18
2018-08-25T07:08:50.011Z,14.27
2018-08-25T07:09:49.991Z,14.09
2018-08-25T07:10:49.979Z,14.20
2018-08-25T07:11:49.976Z,14.27
2018-08-25T07:12:50.014Z,14.18
2018-08-25T07:13:49.940Z,14.04
2018-08-25T07:14:49.917Z,14.17
2018-08-25T07:15:49.898Z,14.20
2018-08-25T07:16:49.895Z,14.20
2018-08-25T07:17:49.862Z,14.21
2018-08-25T07:18:49.892Z,14.25
2018-08-25T07:19:49.826Z,14.29
2018-08-25T07:20:49.828Z,14.27
2018-08-25T07:21:49.807Z,14.17
2018-08-25T07:22:49.779Z,14.29
2018-08-25T07:23:49.764Z,14.20
2018-08-25T07:24:49.746Z,14.07
2018-08-25T07:25:49.766Z,14.15
2018-08-25T07:26:49.728Z,14.18
2018-08-25T07:27:49.699Z,14.17
2018-08-25T07:28:49.682Z,14.29
2018-08-25T07:29:49.679Z,14.28
2018-08-25T07:30:49.647Z,14.32
2018-08-25T07:31:49.648Z,14.45
2018-08-25T07:32:49.629Z,14.39
2018-08-25T07:33:49.602Z,14.45
2018-08-25T07:34:49.598Z,14.54
2018-08-25T07:35:49.569Z,14.54
2018-08-25T07:36:49.548Z,14.61
2018-08-25T07:37:49.533Z,14.65
2018-08-25T07:38:49.517Z,14.68
2018-08-25T07:39:49.502Z,14.62
2018-08-25T07:40:49.505Z,14.62
2018-08-25T07:41:49.516Z,14.64
2018-08-25T07:42:49.450Z,14.52
2018-08-25T07:43:49.433Z,14.61
2018-08-25T07:44:49.416Z,14.62
2018-08-25T07:45:49.417Z,14.91
2018-08-25T07:46:49.385Z,15.02
2018-08-25T07:47:49.365Z,15.03
2018-08-25T07:48:49.883Z,15.14
2018-08-25T07:49:49.929Z,15.09
2018-08-25T07:50:49.335Z,15.16
2018-08-25T07:51:49.306Z,15.23
2018-08-25T07:52:49.292Z,15.19
2018-08-25T07:53:49.336Z,15.35
2018-08-25T07:54:49.300Z,15.32
2018-08-25T07:55:49.241Z,15.41
2018-08-25T07:56:49.254Z,15.54
2018-08-25T07:57:49.215Z,15.65
2018-08-25T07:58:49.193Z,15.68
2018-08-25T08:00:10.186Z,15.54
2018-08-25T08:00:49.157Z,15.64
2018-08-25T08:01:49.165Z,15.59
2018-08-25T08:02:49.128Z,15.68
2018-08-25T08:03:49.113Z,15.53
2018-08-25T08:04:49.125Z,15.65
2018-08-25T08:05:49.073Z,15.83
2018-08-25T08:06:49.061Z,15.84
2018-08-25T08:07:49.067Z,16.01
2018-08-25T08:08:49.038Z,15.84
2018-08-25T08:09:49.018Z,15.71
2018-08-25T08:10:49.008Z,15.32
2018-08-25T08:11:48.990Z,15.36
2018-08-25T08:12:48.987Z,15.44
2018-08-25T08:13:48.955Z,15.46
2018-08-25T08:14:48.960Z,15.68
2018-08-25T08:15:48.925Z,15.80
2018-08-25T08:16:48.904Z,15.92
2018-08-25T08:17:48.893Z,16.00
2018-08-25T08:18:48.886Z,16.27
2018-08-25T08:19:48.856Z,16.24
2018-08-25T08:20:48.843Z,16.23
2018-08-25T08:21:48.828Z,16.25
2018-08-25T08:22:48.813Z,16.28
2018-08-25T08:23:48.811Z,16.33
2018-08-25T08:24:48.783Z,16.41
2018-08-25T08:25:48.765Z,16.52
2018-08-25T08:26:48.748Z,16.53
2018-08-25T08:27:48.735Z,16.49
2018-08-25T08:28:48.740Z,16.43
2018-08-25T08:29:48.721Z,16.50
2018-08-25T08:30:48.700Z,16.60
2018-08-25T08:31:48.670Z,16.57
2018-08-25T08:32:48.694Z,16.64
2018-08-25T08:33:48.661Z,16.61
2018-08-25T08:34:48.623Z,16.73
2018-08-25T08:35:48.610Z,16.79
2018-08-25T08:36:48.593Z,16.89
2018-08-25T08:37:48.579Z,16.93
2018-08-25T08:38:48.560Z,17.23
2018-08-25T08:39:48.562Z,17.28
2018-08-25T08:40:48.528Z,17.43
2018-08-25T08:41:48.536Z,17.48
2018-08-25T08:42:48.495Z,17.68
2018-08-25T08:43:48.481Z,17.93
2018-08-25T08:44:48.487Z,17.89
2018-08-25T08:45:48.468Z,18.05
2018-08-25T08:46:48.437Z,18.11
2018-08-25T08:47:48.424Z,18.26
2018-08-25T08:48:48.410Z,18.52
2018-08-25T08:49:48.406Z,18.87
2018-08-25T08:50:48.397Z,19.41
2018-08-25T08:51:48.361Z,19.88
2018-08-25T08:52:48.343Z,19.83
2018-08-25T08:53:48.331Z,19.40
2018-08-25T08:54:48.315Z,19.62
2018-08-25T08:55:48.316Z,20.05
2018-08-25T08:56:48.291Z,19.84
2018-08-25T08:57:48.272Z,20.03
2018-08-25T08:58:48.257Z,20.21
2018-08-25T08:59:48.243Z,19.87
2018-08-25T09:00:48.243Z,20.14
2018-08-25T09:01:48.214Z,20.50
2018-08-25T09:02:48.200Z,20.41
2018-08-25T09:03:48.184Z,20.58
2018-08-25T09:04:48.169Z,20.23
2018-08-25T09:05:48.172Z,19.88
2018-08-25T09:06:48.140Z,19.83
2018-08-25T09:07:48.126Z,20.17
2018-08-25T09:08:48.111Z,20.35
2018-08-25T09:09:48.099Z,20.17
2018-08-25T09:10:48.095Z,20.67
2018-08-25T09:11:48.120Z,20.38
2018-08-25T09:12:48.054Z,21.17
2018-08-25T09:13:48.046Z,20.87
2018-08-25T09:14:48.903Z,20.92
2018-08-25T09:15:48.034Z,20.77
2018-08-25T09:16:47.999Z,20.85
2018-08-25T09:17:47.985Z,20.74
2018-08-25T09:18:47.968Z,20.84
2018-08-25T09:19:47.954Z,21.28
2018-08-25T09:20:47.950Z,21.17
2018-08-25T09:21:47.924Z,21.88
2018-08-25T09:22:47.911Z,21.99
2018-08-25T09:23:47.897Z,22.27
2018-08-25T09:24:47.883Z,22.46
2018-08-25T09:25:47.894Z,21.68
2018-08-25T09:26:47.867Z,21.68
2018-08-25T09:27:47.849Z,20.92
2018-08-25T09:28:47.835Z,21.47
2018-08-25T09:29:47.817Z,21.65
2018-08-25T09:30:47.820Z,21.50
2018-08-25T09:31:47.807Z,21.35
2018-08-25T09:32:47.785Z,21.75
2018-08-25T09:33:47.773Z,21.99
2018-08-25T09:34:47.761Z,22.03
2018-08-25T09:35:47.799Z,21.94
2018-08-25T09:36:47.950Z,22.07
2018-08-25T09:37:47.729Z,22.42
2018-08-25T09:38:47.717Z,22.67
2018-08-25T09:39:47.708Z,22.51
2018-08-25T09:40:47.699Z,22.09
2018-08-25T09:41:47.765Z,22.24
2018-08-25T09:42:47.694Z,22.14
2018-08-25T09:43:47.664Z,22.31
2018-08-25T09:44:47.660Z,22.52
2018-08-25T09:45:47.650Z,22.62
2018-08-25T09:46:47.673Z,22.33
2018-08-25T09:47:47.645Z,22.47
2018-08-25T09:48:47.623Z,22.57
2018-08-25T09:49:47.616Z,22.68
2018-08-25T09:50:47.608Z,22.58
2018-08-25T09:51:47.602Z,22.31
2018-08-25T09:52:47.603Z,22.75
2018-08-25T09:53:47.586Z,23.54
2018-08-25T09:54:47.584Z,24.35
2018-08-25T09:55:47.572Z,24.00
2018-08-25T09:56:47.563Z,23.09
2018-08-25T09:57:47.578Z,23.38
2018-08-25T09:58:47.555Z,22.70
2018-08-25T09:59:47.540Z,22.03
2018-08-25T10:00:47.535Z,21.86
2018-08-25T10:01:47.528Z,21.91
2018-08-25T10:02:47.515Z,21.38
2018-08-25T10:03:47.524Z,20.97
2018-08-25T10:04:47.505Z,21.46
2018-08-25T10:05:47.500Z,22.28
2018-08-25T10:06:47.486Z,22.31
2018-08-25T10:07:47.482Z,22.65
2018-08-25T10:08:47.493Z,22.88
2018-08-25T10:09:47.469Z,23.23
2018-08-25T10:10:47.488Z,23.54
2018-08-25T10:11:47.453Z,23.54
2018-08-25T10:12:47.466Z,22.68
2018-08-25T10:13:47.441Z,23.02
2018-08-25T10:14:47.453Z,23.43
2018-08-25T10:15:47.428Z,24.28
2018-08-25T10:16:47.434Z,23.38
2018-08-25T10:17:47.413Z,23.55
2018-08-25T10:18:47.404Z,21.88
2018-08-25T10:19:47.430Z,20.70
2018-08-25T10:20:47.393Z,19.95
2018-08-25T10:21:47.383Z,20.69
2018-08-25T10:22:47.378Z,20.59
2018-08-25T10:23:47.380Z,19.96
2018-08-25T10:24:47.365Z,19.48
2018-08-25T10:25:47.375Z,20.03
2018-08-25T10:26:47.345Z,21.21
2018-08-25T10:27:47.414Z,21.24
2018-08-25T10:28:47.336Z,21.71
2018-08-25T10:29:47.327Z,20.99
2018-08-25T10:30:47.333Z,20.41
2018-08-25T10:31:47.381Z,19.76
2018-08-25T10:32:47.302Z,19.28
2018-08-25T10:33:47.291Z,19.13
2018-08-25T10:34:47.278Z,19.07
2018-08-25T10:35:47.288Z,18.85
2018-08-25T10:36:47.264Z,19.51
2018-08-25T10:37:47.251Z,20.47
2018-08-25T10:38:47.243Z,21.27
2018-08-25T10:39:47.234Z,21.32
2018-08-25T10:40:47.241Z,22.33
2018-08-25T10:41:47.324Z,22.68
2018-08-25T10:42:47.213Z,22.57
2018-08-25T10:43:47.198Z,22.15
2018-08-25T10:44:47.189Z,22.75
2018-08-25T10:45:47.197Z,23.48
2018-08-25T10:46:47.173Z,23.69
2018-08-25T10:47:47.162Z,23.65
2018-08-25T10:48:47.158Z,24.47
2018-08-25T10:49:47.147Z,25.03
2018-08-25T10:50:47.138Z,24.35
2018-08-25T10:51:47.147Z,24.91
2018-08-25T10:52:47.136Z,25.18
2018-08-25T10:53:47.130Z,23.54
2018-08-25T10:54:47.109Z,22.28
2018-08-25T10:55:47.102Z,21.99
2018-08-25T10:56:47.110Z,21.29
2018-08-25T10:57:47.090Z,20.55
2018-08-25T10:58:47.093Z,20.26
2018-08-25T10:59:47.077Z,19.65
2018-08-25T11:00:47.317Z,19.11
2018-08-25T11:01:47.074Z,18.85
2018-08-25T11:02:47.050Z,18.84
2018-08-25T11:03:47.042Z,18.81
2018-08-25T11:04:47.036Z,19.28
2018-08-25T11:05:47.024Z,20.20
2018-08-25T11:06:47.031Z,20.92
2018-08-25T11:07:47.007Z,21.61
2018-08-25T11:08:47.043Z,22.55
2018-08-25T11:09:46.989Z,23.39
2018-08-25T11:10:46.978Z,23.97
2018-08-25T11:11:46.973Z,23.75
2018-08-25T11:12:46.961Z,22.67
2018-08-25T11:13:46.967Z,22.72
2018-08-25T11:14:46.947Z,22.95
2018-08-25T11:15:46.940Z,22.62
2018-08-25T11:16:46.947Z,22.14
2018-08-25T11:17:46.927Z,22.57
2018-08-25T11:18:46.915Z,22.49
2018-08-25T11:19:46.924Z,23.07
2018-08-25T11:20:46.911Z,22.70
2018-08-25T11:21:46.893Z,21.96
2018-08-25T11:22:46.880Z,21.49
2018-08-25T11:23:47.005Z,21.69
2018-08-25T11:24:46.869Z,21.10
2018-08-25T11:25:46.883Z,20.67
2018-08-25T11:26:46.853Z,20.48
2018-08-25T11:27:46.858Z,20.41
2018-08-25T11:28:46.839Z,20.16
2018-08-25T11:29:46.832Z,20.03
2018-08-25T11:30:46.819Z,20.01
2018-08-25T11:31:46.835Z,19.96
2018-08-25T11:32:46.820Z,20.13
2018-08-25T11:33:46.801Z,20.29
2018-08-25T11:34:46.788Z,20.99
2018-08-25T11:35:46.780Z,21.94
2018-08-25T11:36:46.780Z,21.68
2018-08-25T11:37:46.884Z,21.62
2018-08-25T11:38:46.768Z,21.46
2018-08-25T11:39:46.741Z,21.58
2018-08-25T11:40:46.733Z,21.47
2018-08-25T11:41:46.739Z,21.71
2018-08-25T11:42:46.716Z,21.54
2018-08-25T11:43:46.703Z,21.71
2018-08-25T11:44:46.699Z,22.14
2018-08-25T11:45:46.689Z,22.57
2018-08-25T11:46:46.692Z,23.07
2018-08-25T11:47:46.671Z,22.97
2018-08-25T11:48:46.673Z,22.62
2018-08-25T11:49:46.654Z,22.70
2018-08-25T11:50:46.645Z,23.33
2018-08-25T11:51:46.653Z,23.93
2018-08-25T11:52:46.698Z,23.91
2018-08-25T11:53:46.626Z,22.94
2018-08-25T11:54:46.614Z,22.45
2018-08-25T11:55:46.614Z,21.74
2018-08-25T11:56:46.605Z,21.31
2018-08-25T11:57:46.613Z,21.17
2018-08-25T11:58:46.587Z,21.17
2018-08-25T11:59:46.577Z,21.12
2018-08-25T12:00:46.573Z,20.92
2018-08-25T12:01:46.581Z,20.72
2018-08-25T12:02:46.570Z,20.62
2018-08-25T12:03:46.548Z,20.52
2018-08-25T12:04:46.536Z,20.14
2018-08-25T12:05:46.539Z,19.63
2018-08-25T12:06:46.524Z,19.68
2018-08-25T12:07:46.529Z,19.28
2018-08-25T12:08:46.516Z,19.23
2018-08-25T12:09:46.491Z,19.10
2018-08-25T12:10:46.485Z,19.26
2018-08-25T12:11:46.477Z,19.50
2018-08-25T12:12:46.465Z,19.69
2018-08-25T12:13:46.471Z,19.62
2018-08-25T12:14:46.444Z,20.01
2018-08-25T12:15:46.428Z,20.98
2018-08-25T12:16:46.418Z,21.17
2018-08-25T12:17:46.412Z,20.80
2018-08-25T12:18:46.402Z,20.13
2018-08-25T12:19:46.411Z,20.05
2018-08-25T12:20:46.379Z,20.26
2018-08-25T12:21:46.375Z,20.47
2018-08-25T12:22:46.357Z,20.10
2018-08-25T12:23:46.363Z,20.03
2018-08-25T12:24:46.343Z,19.78
2018-08-25T12:25:46.341Z,19.86
2018-08-25T12:26:46.317Z,20.11
2018-08-25T12:27:46.307Z,20.02
2018-08-25T12:28:46.310Z,19.94
2018-08-25T12:29:46.302Z,19.96
2018-08-25T12:30:46.272Z,19.87
2018-08-25T12:31:46.262Z,19.69
2018-08-25T12:32:46.260Z,19.33
2018-08-25T12:33:46.245Z,19.08
2018-08-25T12:34:46.303Z,19.31
2018-08-25T12:35:46.223Z,20.03
2018-08-25T12:36:46.212Z,20.54
2018-08-25T12:37:46.203Z,20.98
2018-08-25T12:38:46.194Z,21.13
2018-08-25T12:39:46.202Z,21.01
2018-08-25T12:40:46.169Z,21.34
2018-08-25T12:41:46.164Z,21.68
2018-08-25T12:42:46.151Z,22.14
2018-08-25T12:43:46.147Z,22.17
2018-08-25T12:44:46.148Z,22.36
2018-08-25T12:45:46.140Z,22.77
2018-08-25T12:46:46.116Z,23.02
2018-08-25T12:47:46.110Z,23.35
2018-08-25T12:48:46.164Z,23.25
2018-08-25T12:49:46.107Z,23.39
2018-08-25T12:50:46.097Z,23.38
2018-08-25T12:51:46.123Z,23.10
2018-08-25T12:52:46.070Z,22.70